sensor_id;sensor_type;location;lat;lon;timestamp;P1;durP1;ratioP1;P2;durP2;ratioP2
57565;SDS011;63999;43.882;-0.310;2023-03-21T00:01:19;5.38;;;2.42;;
57565;SDS011;63999;43.882;-0.310;2023-03-21T00:03:45;3.92;;;2.30;;
57565;SDS011;63999;43.882;-0.310;2023-03-21T00:06:13;4.70;;;2.40;;
57565;SDS011;63999;43.882;-0.310;2023-03-21T00:08:39;4.07;;;2.30;;
57565;SDS011;63999;43.882;-0.310;2023-03-21T00:11:06;6.47;;;2.55;;
57565;SDS011;63999;43.882;-0.310;2023-03-21T00:13:34;3.75;;;2.45;;
57565;SDS011;63999;43.882;-0.310;2023-03-21T00:16:06;5.05;;;2.42;;
57565;SDS011;63999;43.882;-0.310;2023-03-21T00:18:34;3.65;;;2.47;;
57565;SDS011;63999;43.882;-0.310;2023-03-21T00:21:03;4.18;;;2.60;;
57565;SDS011;63999;43.882;-0.310;2023-03-21T00:23:30;3.78;;;2.05;;
57565;SDS011;63999;43.882;-0.310;2023-03-21T00:25:57;4.72;;;2.70;;
57565;SDS011;63999;43.882;-0.310;2023-03-21T00:28:23;4.57;;;2.42;;
57565;SDS011;63999;43.882;-0.310;2023-03-21T00:30:50;4.32;;;2.50;;
57565;SDS011;63999;43.882;-0.310;2023-03-21T00:33:16;4.68;;;2.50;;
57565;SDS011;63999;43.882;-0.310;2023-03-21T00:35:44;4.47;;;2.70;;
57565;SDS011;63999;43.882;-0.310;2023-03-21T00:38:12;7.70;;;2.50;;
57565;SDS011;63999;43.882;-0.310;2023-03-21T00:40:38;3.85;;;2.47;;
57565;SDS011;63999;43.882;-0.310;2023-03-21T00:43:04;5.30;;;2.85;;
57565;SDS011;63999;43.882;-0.310;2023-03-21T00:45:30;5.88;;;2.20;;
57565;SDS011;63999;43.882;-0.310;2023-03-21T00:47:56;4.15;;;2.50;;
57565;SDS011;63999;43.882;-0.310;2023-03-21T00:50:23;3.53;;;2.17;;
57565;SDS011;63999;43.882;-0.310;2023-03-21T00:52:49;3.30;;;2.20;;
57565;SDS011;63999;43.882;-0.310;2023-03-21T00:55:16;4.68;;;2.55;;
57565;SDS011;63999;43.882;-0.310;2023-03-21T00:57:43;4.55;;;2.20;;
57565;SDS011;63999;43.882;-0.310;2023-03-21T01:00:10;5.70;;;2.20;;
57565;SDS011;63999;43.882;-0.310;2023-03-21T01:02:39;4.15;;;2.50;;
57565;SDS011;63999;43.882;-0.310;2023-03-21T01:05:21;4.93;;;2.53;;
57565;SDS011;63999;43.882;-0.310;2023-03-21T01:08:08;4.88;;;2.30;;
57565;SDS011;63999;43.882;-0.310;2023-03-21T01:10:40;4.65;;;2.53;;
57565;SDS011;63999;43.882;-0.310;2023-03-21T01:13:08;4.50;;;2.13;;
57565;SDS011;63999;43.882;-0.310;2023-03-21T01:15:36;4.18;;;2.33;;
57565;SDS011;63999;43.882;-0.310;2023-03-21T01:20:34;3.50;;;1.90;;
57565;SDS011;63999;43.882;-0.310;2023-03-21T01:23:00;3.25;;;1.90;;
57565;SDS011;63999;43.882;-0.310;2023-03-21T01:25:26;4.28;;;1.88;;
57565;SDS011;63999;43.882;-0.310;2023-03-21T01:27:52;3.28;;;1.77;;
57565;SDS011;63999;43.882;-0.310;2023-03-21T01:30:19;5.22;;;2.00;;
57565;SDS011;63999;43.882;-0.310;2023-03-21T01:32:45;4.40;;;2.20;;
57565;SDS011;63999;43.882;-0.310;2023-03-21T01:35:11;3.58;;;2.05;;
57565;SDS011;63999;43.882;-0.310;2023-03-21T01:37:37;4.70;;;2.03;;
57565;SDS011;63999;43.882;-0.310;2023-03-21T01:40:03;4.80;;;2.03;;
57565;SDS011;63999;43.882;-0.310;2023-03-21T01:42:30;6.00;;;2.20;;
57565;SDS011;63999;43.882;-0.310;2023-03-21T01:44:59;4.78;;;2.10;;
57565;SDS011;63999;43.882;-0.310;2023-03-21T01:47:28;3.00;;;1.77;;
57565;SDS011;63999;43.882;-0.310;2023-03-21T01:49:55;3.10;;;1.67;;
57565;SDS011;63999;43.882;-0.310;2023-03-21T01:52:30;3.17;;;1.63;;
57565;SDS011;63999;43.882;-0.310;2023-03-21T01:55:01;3.20;;;1.80;;
57565;SDS011;63999;43.882;-0.310;2023-03-21T01:57:32;3.25;;;1.67;;
57565;SDS011;63999;43.882;-0.310;2023-03-21T02:00:05;3.90;;;2.15;;
57565;SDS011;63999;43.882;-0.310;2023-03-21T02:02:36;3.58;;;1.90;;
57565;SDS011;63999;43.882;-0.310;2023-03-21T02:05:27;4.10;;;2.05;;
57565;SDS011;63999;43.882;-0.310;2023-03-21T02:08:04;4.20;;;2.00;;
57565;SDS011;63999;43.882;-0.310;2023-03-21T02:10:31;5.20;;;2.28;;
57565;SDS011;63999;43.882;-0.310;2023-03-21T02:12:59;3.25;;;2.08;;
57565;SDS011;63999;43.882;-0.310;2023-03-21T02:15:33;5.13;;;1.98;;
57565;SDS011;63999;43.882;-0.310;2023-03-21T02:26:17;2.53;;;1.52;;
57565;SDS011;63999;43.882;-0.310;2023-03-21T02:35:15;2.88;;;1.55;;
57565;SDS011;63999;43.882;-0.310;2023-03-21T02:37:47;2.58;;;1.40;;
57565;SDS011;63999;43.882;-0.310;2023-03-21T02:45:29;3.78;;;1.55;;
57565;SDS011;63999;43.882;-0.310;2023-03-21T02:48:05;3.65;;;1.27;;
57565;SDS011;63999;43.882;-0.310;2023-03-21T02:56:22;2.90;;;1.27;;
57565;SDS011;63999;43.882;-0.310;2023-03-21T02:58:50;3.70;;;1.35;;
57565;SDS011;63999;43.882;-0.310;2023-03-21T03:01:17;3.15;;;1.52;;
57565;SDS011;63999;43.882;-0.310;2023-03-21T03:03:43;3.15;;;1.25;;
57565;SDS011;63999;43.882;-0.310;2023-03-21T03:06:13;1.30;;;1.00;;
57565;SDS011;63999;43.882;-0.310;2023-03-21T03:11:44;3.60;;;1.38;;
57565;SDS011;63999;43.882;-0.310;2023-03-21T03:22:57;2.85;;;1.33;;
57565;SDS011;63999;43.882;-0.310;2023-03-21T03:25:49;3.38;;;1.33;;
57565;SDS011;63999;43.882;-0.310;2023-03-21T03:28:24;3.25;;;1.38;;
57565;SDS011;63999;43.882;-0.310;2023-03-21T03:30:54;3.22;;;1.40;;
57565;SDS011;63999;43.882;-0.310;2023-03-21T03:33:21;3.42;;;1.67;;
57565;SDS011;63999;43.882;-0.310;2023-03-21T03:35:50;3.03;;;1.58;;
57565;SDS011;63999;43.882;-0.310;2023-03-21T03:38:17;2.13;;;1.50;;
57565;SDS011;63999;43.882;-0.310;2023-03-21T03:40:47;2.58;;;1.33;;
57565;SDS011;63999;43.882;-0.310;2023-03-21T03:43:20;3.35;;;1.35;;
57565;SDS011;63999;43.882;-0.310;2023-03-21T03:45:55;2.22;;;1.35;;
57565;SDS011;63999;43.882;-0.310;2023-03-21T03:48:31;2.65;;;1.40;;
57565;SDS011;63999;43.882;-0.310;2023-03-21T03:51:12;4.18;;;1.40;;
57565;SDS011;63999;43.882;-0.310;2023-03-21T03:53:56;1.92;;;1.40;;
57565;SDS011;63999;43.882;-0.310;2023-03-21T03:56:27;5.38;;;1.20;;
57565;SDS011;63999;43.882;-0.310;2023-03-21T03:58:55;2.33;;;1.30;;
57565;SDS011;63999;43.882;-0.310;2023-03-21T04:01:21;2.85;;;1.35;;
57565;SDS011;63999;43.882;-0.310;2023-03-21T04:03:48;3.15;;;1.20;;
57565;SDS011;63999;43.882;-0.310;2023-03-21T04:06:14;3.75;;;1.27;;
57565;SDS011;63999;43.882;-0.310;2023-03-21T04:08:42;2.70;;;1.48;;
57565;SDS011;63999;43.882;-0.310;2023-03-21T04:11:09;2.17;;;1.30;;
57565;SDS011;63999;43.882;-0.310;2023-03-21T04:13:38;1.73;;;1.20;;
57565;SDS011;63999;43.882;-0.310;2023-03-21T04:16:05;3.17;;;1.75;;
57565;SDS011;63999;43.882;-0.310;2023-03-21T04:18:31;2.53;;;1.23;;
57565;SDS011;63999;43.882;-0.310;2023-03-21T04:20:57;2.40;;;1.52;;
57565;SDS011;63999;43.882;-0.310;2023-03-21T04:23:23;2.40;;;1.50;;
57565;SDS011;63999;43.882;-0.310;2023-03-21T04:25:49;2.05;;;1.55;;
57565;SDS011;63999;43.882;-0.310;2023-03-21T04:28:15;1.92;;;1.10;;
57565;SDS011;63999;43.882;-0.310;2023-03-21T04:30:41;3.53;;;1.42;;
57565;SDS011;63999;43.882;-0.310;2023-03-21T04:33:08;4.10;;;1.48;;
57565;SDS011;63999;43.882;-0.310;2023-03-21T04:35:36;2.22;;;1.52;;
57565;SDS011;63999;43.882;-0.310;2023-03-21T04:38:02;2.80;;;1.40;;
57565;SDS011;63999;43.882;-0.310;2023-03-21T04:40:29;3.53;;;1.65;;
57565;SDS011;63999;43.882;-0.310;2023-03-21T04:42:54;2.15;;;1.30;;
57565;SDS011;63999;43.882;-0.310;2023-03-21T04:45:20;2.42;;;1.58;;
57565;SDS011;63999;43.882;-0.310;2023-03-21T04:47:46;5.05;;;1.60;;
57565;SDS011;63999;43.882;-0.310;2023-03-21T04:50:12;2.85;;;1.42;;
57565;SDS011;63999;43.882;-0.310;2023-03-21T04:52:39;2.72;;;1.50;;
57565;SDS011;63999;43.882;-0.310;2023-03-21T04:55:05;2.95;;;1.70;;
57565;SDS011;63999;43.882;-0.310;2023-03-21T04:57:34;4.30;;;1.55;;
57565;SDS011;63999;43.882;-0.310;2023-03-21T05:00:03;2.83;;;1.50;;
57565;SDS011;63999;43.882;-0.310;2023-03-21T05:02:34;2.38;;;1.55;;
57565;SDS011;63999;43.882;-0.310;2023-03-21T05:05:00;3.17;;;1.52;;
57565;SDS011;63999;43.882;-0.310;2023-03-21T05:07:26;4.10;;;1.40;;
57565;SDS011;63999;43.882;-0.310;2023-03-21T05:09:52;3.10;;;1.63;;
57565;SDS011;63999;43.882;-0.310;2023-03-21T05:12:18;2.60;;;1.40;;
57565;SDS011;63999;43.882;-0.310;2023-03-21T05:14:44;3.35;;;1.30;;
57565;SDS011;63999;43.882;-0.310;2023-03-21T05:17:10;3.17;;;1.48;;
57565;SDS011;63999;43.882;-0.310;2023-03-21T05:19:39;2.58;;;1.52;;
57565;SDS011;63999;43.882;-0.310;2023-03-21T05:22:08;3.45;;;1.50;;
57565;SDS011;63999;43.882;-0.310;2023-03-21T05:24:35;2.67;;;1.50;;
57565;SDS011;63999;43.882;-0.310;2023-03-21T05:27:03;2.38;;;1.45;;
57565;SDS011;63999;43.882;-0.310;2023-03-21T05:29:29;4.75;;;1.83;;
57565;SDS011;63999;43.882;-0.310;2023-03-21T05:31:56;4.80;;;1.90;;
57565;SDS011;63999;43.882;-0.310;2023-03-21T05:34:24;3.45;;;1.95;;
57565;SDS011;63999;43.882;-0.310;2023-03-21T05:36:51;3.20;;;1.70;;
57565;SDS011;63999;43.882;-0.310;2023-03-21T05:39:17;3.40;;;1.70;;
57565;SDS011;63999;43.882;-0.310;2023-03-21T05:41:43;2.17;;;1.60;;
57565;SDS011;63999;43.882;-0.310;2023-03-21T05:44:09;3.45;;;1.80;;
57565;SDS011;63999;43.882;-0.310;2023-03-21T05:46:35;3.80;;;1.98;;
57565;SDS011;63999;43.882;-0.310;2023-03-21T05:49:01;2.90;;;1.70;;
57565;SDS011;63999;43.882;-0.310;2023-03-21T05:51:27;2.90;;;1.63;;
57565;SDS011;63999;43.882;-0.310;2023-03-21T05:53:52;4.80;;;1.80;;
57565;SDS011;63999;43.882;-0.310;2023-03-21T05:56:18;2.80;;;1.67;;
57565;SDS011;63999;43.882;-0.310;2023-03-21T05:58:44;4.13;;;2.20;;
57565;SDS011;63999;43.882;-0.310;2023-03-21T06:01:10;2.55;;;1.80;;
57565;SDS011;63999;43.882;-0.310;2023-03-21T06:03:36;4.18;;;2.40;;
57565;SDS011;63999;43.882;-0.310;2023-03-21T06:06:02;5.60;;;2.10;;
57565;SDS011;63999;43.882;-0.310;2023-03-21T06:08:28;4.60;;;1.92;;
57565;SDS011;63999;43.882;-0.310;2023-03-21T06:10:55;4.28;;;2.00;;
57565;SDS011;63999;43.882;-0.310;2023-03-21T06:13:21;4.28;;;2.08;;
57565;SDS011;63999;43.882;-0.310;2023-03-21T06:15:47;2.85;;;2.20;;
57565;SDS011;63999;43.882;-0.310;2023-03-21T06:18:13;2.60;;;1.80;;
57565;SDS011;63999;43.882;-0.310;2023-03-21T06:20:39;3.17;;;1.90;;
57565;SDS011;63999;43.882;-0.310;2023-03-21T06:23:05;3.15;;;1.90;;
57565;SDS011;63999;43.882;-0.310;2023-03-21T06:25:31;2.45;;;1.80;;
57565;SDS011;63999;43.882;-0.310;2023-03-21T06:30:57;4.50;;;2.00;;
57565;SDS011;63999;43.882;-0.310;2023-03-21T06:33:23;4.97;;;2.00;;
57565;SDS011;63999;43.882;-0.310;2023-03-21T06:35:50;4.10;;;2.35;;
57565;SDS011;63999;43.882;-0.310;2023-03-21T06:38:19;5.57;;;3.10;;
57565;SDS011;63999;43.882;-0.310;2023-03-21T06:40:45;6.72;;;2.97;;
57565;SDS011;63999;43.882;-0.310;2023-03-21T06:43:12;6.03;;;2.72;;
57565;SDS011;63999;43.882;-0.310;2023-03-21T06:45:38;5.85;;;2.88;;
57565;SDS011;63999;43.882;-0.310;2023-03-21T06:48:06;3.85;;;2.33;;
57565;SDS011;63999;43.882;-0.310;2023-03-21T06:50:32;4.63;;;2.67;;
57565;SDS011;63999;43.882;-0.310;2023-03-21T06:52:59;8.95;;;4.28;;
57565;SDS011;63999;43.882;-0.310;2023-03-21T06:55:25;6.68;;;3.83;;
57565;SDS011;63999;43.882;-0.310;2023-03-21T06:57:53;6.05;;;3.95;;
57565;SDS011;63999;43.882;-0.310;2023-03-21T07:00:21;7.05;;;3.65;;
57565;SDS011;63999;43.882;-0.310;2023-03-21T07:02:48;3.08;;;2.60;;
57565;SDS011;63999;43.882;-0.310;2023-03-21T07:05:15;2.15;;;1.95;;
57565;SDS011;63999;43.882;-0.310;2023-03-21T07:07:41;3.03;;;2.28;;
57565;SDS011;63999;43.882;-0.310;2023-03-21T07:10:07;4.10;;;3.47;;
57565;SDS011;63999;43.882;-0.310;2023-03-21T07:12:34;4.60;;;3.90;;
57565;SDS011;63999;43.882;-0.310;2023-03-21T07:15:04;2.90;;;2.60;;
57565;SDS011;63999;43.882;-0.310;2023-03-21T07:17:31;4.70;;;2.30;;
57565;SDS011;63999;43.882;-0.310;2023-03-21T07:19:57;2.70;;;2.15;;
57565;SDS011;63999;43.882;-0.310;2023-03-21T07:22:24;2.78;;;2.38;;
57565;SDS011;63999;43.882;-0.310;2023-03-21T07:24:50;2.83;;;2.53;;
57565;SDS011;63999;43.882;-0.310;2023-03-21T07:27:16;3.15;;;2.50;;
57565;SDS011;63999;43.882;-0.310;2023-03-21T07:29:43;3.30;;;2.72;;
57565;SDS011;63999;43.882;-0.310;2023-03-21T07:32:11;2.80;;;2.50;;
57565;SDS011;63999;43.882;-0.310;2023-03-21T07:34:37;3.10;;;2.80;;
57565;SDS011;63999;43.882;-0.310;2023-03-21T07:37:03;3.58;;;2.80;;
57565;SDS011;63999;43.882;-0.310;2023-03-21T07:39:31;3.50;;;2.75;;
57565;SDS011;63999;43.882;-0.310;2023-03-21T07:41:59;2.92;;;2.63;;
57565;SDS011;63999;43.882;-0.310;2023-03-21T07:44:25;3.53;;;3.00;;
57565;SDS011;63999;43.882;-0.310;2023-03-21T07:46:51;4.90;;;2.80;;
57565;SDS011;63999;43.882;-0.310;2023-03-21T07:49:17;1.73;;;1.60;;
57565;SDS011;63999;43.882;-0.310;2023-03-21T07:51:42;2.53;;;2.33;;
57565;SDS011;63999;43.882;-0.310;2023-03-21T07:54:08;3.10;;;2.80;;
57565;SDS011;63999;43.882;-0.310;2023-03-21T07:56:34;3.53;;;3.22;;
57565;SDS011;63999;43.882;-0.310;2023-03-21T07:59:00;4.20;;;3.08;;
57565;SDS011;63999;43.882;-0.310;2023-03-21T08:01:26;4.03;;;3.38;;
57565;SDS011;63999;43.882;-0.310;2023-03-21T08:03:52;2.90;;;1.65;;
57565;SDS011;63999;43.882;-0.310;2023-03-21T08:06:18;2.97;;;2.25;;
57565;SDS011;63999;43.882;-0.310;2023-03-21T08:08:45;2.47;;;1.90;;
57565;SDS011;63999;43.882;-0.310;2023-03-21T08:11:11;2.78;;;2.28;;
57565;SDS011;63999;43.882;-0.310;2023-03-21T08:13:37;4.13;;;3.35;;
57565;SDS011;63999;43.882;-0.310;2023-03-21T08:16:03;5.00;;;3.65;;
57565;SDS011;63999;43.882;-0.310;2023-03-21T08:18:29;2.90;;;2.47;;
57565;SDS011;63999;43.882;-0.310;2023-03-21T08:20:56;3.60;;;2.45;;
57565;SDS011;63999;43.882;-0.310;2023-03-21T08:23:22;6.22;;;2.40;;
57565;SDS011;63999;43.882;-0.310;2023-03-21T08:25:50;4.60;;;3.75;;
57565;SDS011;63999;43.882;-0.310;2023-03-21T08:28:20;4.07;;;3.03;;
57565;SDS011;63999;43.882;-0.310;2023-03-21T08:30:46;3.65;;;2.92;;
57565;SDS011;63999;43.882;-0.310;2023-03-21T08:33:12;3.85;;;2.80;;
57565;SDS011;63999;43.882;-0.310;2023-03-21T08:35:38;3.28;;;2.80;;
57565;SDS011;63999;43.882;-0.310;2023-03-21T08:38:05;2.75;;;2.30;;
57565;SDS011;63999;43.882;-0.310;2023-03-21T08:40:31;2.88;;;2.45;;
57565;SDS011;63999;43.882;-0.310;2023-03-21T08:42:57;3.50;;;2.78;;
57565;SDS011;63999;43.882;-0.310;2023-03-21T08:45:24;2.85;;;2.47;;
57565;SDS011;63999;43.882;-0.310;2023-03-21T08:47:51;2.85;;;2.58;;
57565;SDS011;63999;43.882;-0.310;2023-03-21T08:50:18;3.65;;;2.38;;
57565;SDS011;63999;43.882;-0.310;2023-03-21T08:52:46;3.60;;;2.88;;
57565;SDS011;63999;43.882;-0.310;2023-03-21T08:55:12;6.85;;;2.75;;
57565;SDS011;63999;43.882;-0.310;2023-03-21T08:57:40;6.50;;;3.63;;
57565;SDS011;63999;43.882;-0.310;2023-03-21T09:00:06;4.78;;;3.28;;
57565;SDS011;63999;43.882;-0.310;2023-03-21T09:02:38;4.07;;;2.85;;
57565;SDS011;63999;43.882;-0.310;2023-03-21T09:05:05;4.95;;;3.22;;
57565;SDS011;63999;43.882;-0.310;2023-03-21T09:07:32;4.85;;;3.05;;
57565;SDS011;63999;43.882;-0.310;2023-03-21T09:10:04;6.43;;;3.00;;
57565;SDS011;63999;43.882;-0.310;2023-03-21T09:12:31;4.35;;;2.90;;
57565;SDS011;63999;43.882;-0.310;2023-03-21T09:14:57;5.95;;;2.95;;
57565;SDS011;63999;43.882;-0.310;2023-03-21T09:17:26;4.55;;;2.83;;
57565;SDS011;63999;43.882;-0.310;2023-03-21T09:19:55;3.80;;;2.80;;
57565;SDS011;63999;43.882;-0.310;2023-03-21T09:22:24;4.88;;;2.90;;
57565;SDS011;63999;43.882;-0.310;2023-03-21T09:24:51;4.35;;;2.85;;
57565;SDS011;63999;43.882;-0.310;2023-03-21T09:27:17;4.50;;;3.10;;
57565;SDS011;63999;43.882;-0.310;2023-03-21T09:29:50;4.82;;;2.97;;
57565;SDS011;63999;43.882;-0.310;2023-03-21T09:32:16;4.75;;;2.97;;
57565;SDS011;63999;43.882;-0.310;2023-03-21T09:34:43;4.63;;;2.42;;
57565;SDS011;63999;43.882;-0.310;2023-03-21T09:37:09;5.18;;;3.33;;
57565;SDS011;63999;43.882;-0.310;2023-03-21T09:39:37;5.35;;;2.97;;
57565;SDS011;63999;43.882;-0.310;2023-03-21T09:47:45;3.15;;;2.33;;
57565;SDS011;63999;43.882;-0.310;2023-03-21T09:53:18;4.75;;;2.83;;
57565;SDS011;63999;43.882;-0.310;2023-03-21T09:55:59;6.65;;;2.65;;
57565;SDS011;63999;43.882;-0.310;2023-03-21T10:01:29;3.88;;;2.20;;
57565;SDS011;63999;43.882;-0.310;2023-03-21T10:04:05;4.65;;;2.53;;
57565;SDS011;63999;43.882;-0.310;2023-03-21T10:06:35;3.88;;;2.60;;
57565;SDS011;63999;43.882;-0.310;2023-03-21T10:09:10;5.35;;;2.20;;
57565;SDS011;63999;43.882;-0.310;2023-03-21T10:16:47;3.15;;;2.10;;
57565;SDS011;63999;43.882;-0.310;2023-03-21T10:19:17;3.80;;;2.15;;
57565;SDS011;63999;43.882;-0.310;2023-03-21T10:21:45;3.03;;;2.13;;
57565;SDS011;63999;43.882;-0.310;2023-03-21T10:24:15;4.82;;;2.00;;
57565;SDS011;63999;43.882;-0.310;2023-03-21T10:26:46;5.25;;;2.30;;
57565;SDS011;63999;43.882;-0.310;2023-03-21T10:29:14;4.45;;;2.22;;
57565;SDS011;63999;43.882;-0.310;2023-03-21T10:31:43;7.15;;;2.10;;
57565;SDS011;63999;43.882;-0.310;2023-03-21T10:34:15;3.17;;;1.90;;
57565;SDS011;63999;43.882;-0.310;2023-03-21T10:36:44;4.38;;;2.22;;
57565;SDS011;63999;43.882;-0.310;2023-03-21T10:39:23;3.28;;;2.10;;
57565;SDS011;63999;43.882;-0.310;2023-03-21T10:41:52;3.05;;;1.73;;
57565;SDS011;63999;43.882;-0.310;2023-03-21T10:44:18;2.92;;;1.25;;
57565;SDS011;63999;43.882;-0.310;2023-03-21T10:46:54;4.97;;;1.65;;
57565;SDS011;63999;43.882;-0.310;2023-03-21T10:49:21;4.15;;;1.77;;
57565;SDS011;63999;43.882;-0.310;2023-03-21T10:51:50;3.47;;;1.67;;
57565;SDS011;63999;43.882;-0.310;2023-03-21T10:54:18;3.15;;;1.65;;
57565;SDS011;63999;43.882;-0.310;2023-03-21T10:57:02;3.80;;;1.77;;
57565;SDS011;63999;43.882;-0.310;2023-03-21T10:59:38;2.83;;;1.73;;
57565;SDS011;63999;43.882;-0.310;2023-03-21T11:02:18;4.60;;;1.90;;
57565;SDS011;63999;43.882;-0.310;2023-03-21T11:04:48;3.58;;;1.80;;
57565;SDS011;63999;43.882;-0.310;2023-03-21T11:07:15;3.28;;;1.63;;
57565;SDS011;63999;43.882;-0.310;2023-03-21T11:12:35;3.88;;;1.70;;
57565;SDS011;63999;43.882;-0.310;2023-03-21T11:17:51;3.40;;;1.95;;
57565;SDS011;63999;43.882;-0.310;2023-03-21T11:20:17;3.75;;;1.85;;
57565;SDS011;63999;43.882;-0.310;2023-03-21T11:22:44;3.45;;;1.70;;
57565;SDS011;63999;43.882;-0.310;2023-03-21T11:27:56;2.78;;;1.58;;
57565;SDS011;63999;43.882;-0.310;2023-03-21T11:30:23;2.70;;;1.60;;
57565;SDS011;63999;43.882;-0.310;2023-03-21T11:32:53;3.03;;;1.70;;
57565;SDS011;63999;43.882;-0.310;2023-03-21T11:35:33;3.08;;;1.67;;
57565;SDS011;63999;43.882;-0.310;2023-03-21T11:38:01;2.55;;;1.60;;
57565;SDS011;63999;43.882;-0.310;2023-03-21T11:40:32;2.05;;;1.40;;
57565;SDS011;63999;43.882;-0.310;2023-03-21T11:43:02;3.80;;;1.67;;
57565;SDS011;63999;43.882;-0.310;2023-03-21T11:48:22;3.00;;;1.42;;
57565;SDS011;63999;43.882;-0.310;2023-03-21T11:50:49;2.60;;;1.35;;
57565;SDS011;63999;43.882;-0.310;2023-03-21T11:53:25;4.22;;;1.73;;
57565;SDS011;63999;43.882;-0.310;2023-03-21T11:58:55;4.22;;;1.42;;
57565;SDS011;63999;43.882;-0.310;2023-03-21T12:05:31;3.45;;;1.25;;
57565;SDS011;63999;43.882;-0.310;2023-03-21T12:07:56;2.75;;;1.35;;
57565;SDS011;63999;43.882;-0.310;2023-03-21T12:24:29;1.95;;;1.20;;
57565;SDS011;63999;43.882;-0.310;2023-03-21T12:36:04;3.22;;;2.00;;
57565;SDS011;63999;43.882;-0.310;2023-03-21T12:38:47;5.03;;;2.10;;
57565;SDS011;63999;43.882;-0.310;2023-03-21T12:41:27;3.85;;;1.80;;
57565;SDS011;63999;43.882;-0.310;2023-03-21T12:46:44;3.38;;;1.92;;
57565;SDS011;63999;43.882;-0.310;2023-03-21T12:55:02;2.50;;;1.50;;
57565;SDS011;63999;43.882;-0.310;2023-03-21T12:57:51;5.75;;;2.45;;
57565;SDS011;63999;43.882;-0.310;2023-03-21T13:03:32;2.17;;;1.30;;
57565;SDS011;63999;43.882;-0.310;2023-03-21T13:06:04;2.42;;;1.20;;
57565;SDS011;63999;43.882;-0.310;2023-03-21T13:11:04;2.78;;;1.30;;
57565;SDS011;63999;43.882;-0.310;2023-03-21T13:13:36;2.60;;;1.20;;
57565;SDS011;63999;43.882;-0.310;2023-03-21T13:19:10;3.47;;;1.63;;
57565;SDS011;63999;43.882;-0.310;2023-03-21T13:24:19;4.28;;;1.50;;
57565;SDS011;63999;43.882;-0.310;2023-03-21T13:27:06;2.08;;;1.50;;
57565;SDS011;63999;43.882;-0.310;2023-03-21T13:32:37;2.30;;;1.40;;
57565;SDS011;63999;43.882;-0.310;2023-03-21T13:37:34;2.10;;;1.10;;
57565;SDS011;63999;43.882;-0.310;2023-03-21T13:40:05;1.60;;;1.33;;
57565;SDS011;63999;43.882;-0.310;2023-03-21T13:42:44;2.58;;;1.23;;
57565;SDS011;63999;43.882;-0.310;2023-03-21T13:45:29;1.88;;;1.40;;
57565;SDS011;63999;43.882;-0.310;2023-03-21T13:47:58;2.50;;;1.50;;
57565;SDS011;63999;43.882;-0.310;2023-03-21T13:55:27;2.60;;;1.00;;
57565;SDS011;63999;43.882;-0.310;2023-03-21T13:57:54;1.60;;;1.10;;
57565;SDS011;63999;43.882;-0.310;2023-03-21T14:00:22;1.90;;;1.20;;
57565;SDS011;63999;43.882;-0.310;2023-03-21T14:05:25;3.00;;;1.27;;
57565;SDS011;63999;43.882;-0.310;2023-03-21T14:07:54;2.78;;;1.20;;
57565;SDS011;63999;43.882;-0.310;2023-03-21T14:10:44;2.28;;;1.30;;
57565;SDS011;63999;43.882;-0.310;2023-03-21T14:13:12;2.00;;;1.10;;
57565;SDS011;63999;43.882;-0.310;2023-03-21T14:15:44;1.80;;;1.30;;
57565;SDS011;63999;43.882;-0.310;2023-03-21T14:18:18;1.77;;;1.00;;
57565;SDS011;63999;43.882;-0.310;2023-03-21T14:20:49;2.13;;;1.10;;
57565;SDS011;63999;43.882;-0.310;2023-03-21T14:23:20;1.73;;;1.20;;
57565;SDS011;63999;43.882;-0.310;2023-03-21T14:25:46;2.67;;;1.10;;
57565;SDS011;63999;43.882;-0.310;2023-03-21T14:28:20;2.05;;;1.10;;
57565;SDS011;63999;43.882;-0.310;2023-03-21T14:30:59;1.88;;;1.10;;
57565;SDS011;63999;43.882;-0.310;2023-03-21T14:33:35;3.13;;;1.02;;
57565;SDS011;63999;43.882;-0.310;2023-03-21T14:36:14;3.15;;;1.20;;
57565;SDS011;63999;43.882;-0.310;2023-03-21T14:41:29;3.45;;;1.20;;
57565;SDS011;63999;43.882;-0.310;2023-03-21T14:43:59;2.83;;;1.10;;
57565;SDS011;63999;43.882;-0.310;2023-03-21T14:47:04;1.85;;;1.08;;
57565;SDS011;63999;43.882;-0.310;2023-03-21T14:49:32;2.58;;;0.90;;
57565;SDS011;63999;43.882;-0.310;2023-03-21T14:52:01;2.53;;;1.00;;
57565;SDS011;63999;43.882;-0.310;2023-03-21T14:54:53;2.55;;;1.05;;
57565;SDS011;63999;43.882;-0.310;2023-03-21T14:57:22;4.65;;;1.27;;
57565;SDS011;63999;43.882;-0.310;2023-03-21T14:59:50;1.35;;;1.08;;
57565;SDS011;63999;43.882;-0.310;2023-03-21T15:02:20;1.95;;;0.95;;
57565;SDS011;63999;43.882;-0.310;2023-03-21T15:04:56;1.23;;;0.85;;
57565;SDS011;63999;43.882;-0.310;2023-03-21T15:07:30;1.98;;;1.08;;
57565;SDS011;63999;43.882;-0.310;2023-03-21T15:10:03;2.55;;;1.13;;
57565;SDS011;63999;43.882;-0.310;2023-03-21T15:12:32;2.97;;;0.90;;
57565;SDS011;63999;43.882;-0.310;2023-03-21T15:14:59;1.73;;;0.90;;
57565;SDS011;63999;43.882;-0.310;2023-03-21T15:17:25;1.73;;;1.00;;
57565;SDS011;63999;43.882;-0.310;2023-03-21T15:19:52;1.65;;;1.02;;
57565;SDS011;63999;43.882;-0.310;2023-03-21T15:22:40;2.20;;;1.33;;
57565;SDS011;63999;43.882;-0.310;2023-03-21T15:25:07;1.58;;;0.93;;
57565;SDS011;63999;43.882;-0.310;2023-03-21T15:30:06;1.05;;;0.90;;
57565;SDS011;63999;43.882;-0.310;2023-03-21T15:32:42;0.80;;;0.80;;
57565;SDS011;63999;43.882;-0.310;2023-03-21T15:35:13;3.00;;;1.13;;
57565;SDS011;63999;43.882;-0.310;2023-03-21T15:37:41;1.15;;;0.80;;
57565;SDS011;63999;43.882;-0.310;2023-03-21T15:42:46;1.13;;;0.77;;
57565;SDS011;63999;43.882;-0.310;2023-03-21T15:45:14;1.67;;;1.00;;
57565;SDS011;63999;43.882;-0.310;2023-03-21T15:48:01;1.58;;;1.20;;
57565;SDS011;63999;43.882;-0.310;2023-03-21T15:53:10;1.33;;;0.70;;
57565;SDS011;63999;43.882;-0.310;2023-03-21T15:55:45;1.20;;;0.80;;
57565;SDS011;63999;43.882;-0.310;2023-03-21T15:58:17;1.30;;;0.95;;
57565;SDS011;63999;43.882;-0.310;2023-03-21T16:00:49;3.30;;;1.38;;
57565;SDS011;63999;43.882;-0.310;2023-03-21T16:03:20;2.15;;;1.30;;
57565;SDS011;63999;43.882;-0.310;2023-03-21T16:06:04;3.17;;;1.20;;
57565;SDS011;63999;43.882;-0.310;2023-03-21T16:08:49;2.58;;;1.20;;
57565;SDS011;63999;43.882;-0.310;2023-03-21T16:13:49;1.77;;;1.13;;
57565;SDS011;63999;43.882;-0.310;2023-03-21T16:16:16;3.90;;;1.35;;
57565;SDS011;63999;43.882;-0.310;2023-03-21T16:18:51;1.50;;;1.00;;
57565;SDS011;63999;43.882;-0.310;2023-03-21T16:21:18;2.58;;;0.95;;
57565;SDS011;63999;43.882;-0.310;2023-03-21T16:23:48;2.25;;;1.10;;
57565;SDS011;63999;43.882;-0.310;2023-03-21T16:26:16;1.38;;;1.10;;
57565;SDS011;63999;43.882;-0.310;2023-03-21T16:28:44;3.45;;;1.20;;
57565;SDS011;63999;43.882;-0.310;2023-03-21T16:31:18;4.35;;;1.00;;
57565;SDS011;63999;43.882;-0.310;2023-03-21T16:33:47;2.15;;;1.10;;
57565;SDS011;63999;43.882;-0.310;2023-03-21T16:36:14;2.17;;;0.80;;
57565;SDS011;63999;43.882;-0.310;2023-03-21T16:38:45;1.17;;;1.00;;
57565;SDS011;63999;43.882;-0.310;2023-03-21T16:41:13;2.13;;;1.13;;
57565;SDS011;63999;43.882;-0.310;2023-03-21T16:43:40;3.55;;;1.10;;
57565;SDS011;63999;43.882;-0.310;2023-03-21T16:46:14;1.58;;;1.00;;
57565;SDS011;63999;43.882;-0.310;2023-03-21T16:48:43;1.65;;;0.93;;
57565;SDS011;63999;43.882;-0.310;2023-03-21T16:51:13;3.22;;;1.00;;
57565;SDS011;63999;43.882;-0.310;2023-03-21T16:53:44;5.30;;;1.38;;
57565;SDS011;63999;43.882;-0.310;2023-03-21T16:56:18;3.17;;;1.20;;
57565;SDS011;63999;43.882;-0.310;2023-03-21T16:58:48;4.20;;;1.33;;
57565;SDS011;63999;43.882;-0.310;2023-03-21T17:01:18;2.17;;;1.00;;
57565;SDS011;63999;43.882;-0.310;2023-03-21T17:03:45;4.22;;;1.17;;
57565;SDS011;63999;43.882;-0.310;2023-03-21T17:06:16;3.90;;;1.30;;
57565;SDS011;63999;43.882;-0.310;2023-03-21T17:08:45;1.60;;;1.00;;
57565;SDS011;63999;43.882;-0.310;2023-03-21T17:11:12;2.75;;;1.20;;
57565;SDS011;63999;43.882;-0.310;2023-03-21T17:13:44;3.67;;;1.10;;